createdAt,value
2019-05-17T00:00:07.403Z,1.77
2019-05-17T00:02:37.424Z,1.57
2019-05-17T00:05:06.867Z,1.60
2019-05-17T00:07:34.104Z,1.70
2019-05-17T00:10:01.176Z,2.00
2019-05-17T00:12:30.051Z,1.77
2019-05-17T00:14:57.130Z,1.70
2019-05-17T00:17:26.611Z,1.70
2019-05-17T00:19:53.180Z,1.67
2019-05-17T00:22:20.247Z,1.37
2019-05-17T00:24:47.830Z,1.70
2019-05-17T00:27:17.081Z,1.67
2019-05-17T00:29:46.404Z,1.57
2019-05-17T00:32:13.034Z,1.50
2019-05-17T00:34:40.112Z,1.50
2019-05-17T00:37:07.253Z,1.77
2019-05-17T00:39:36.578Z,1.77
2019-05-17T00:42:03.386Z,1.40
2019-05-17T00:44:30.446Z,1.57
2019-05-17T00:46:58.834Z,1.40
2019-05-17T00:49:26.468Z,1.77
2019-05-17T00:51:53.611Z,1.67
2019-05-17T00:54:20.679Z,1.33
2019-05-17T00:56:47.762Z,1.50
2019-05-17T00:59:16.974Z,1.30
2019-05-17T01:01:43.859Z,1.50
2019-05-17T01:04:10.939Z,1.70
2019-05-17T01:06:38.028Z,1.30
2019-05-17T01:09:07.805Z,1.30
2019-05-17T01:11:36.615Z,1.60
2019-05-17T01:14:03.842Z,1.67
2019-05-17T01:16:30.913Z,1.57
2019-05-17T01:18:57.986Z,1.50
2019-05-17T01:21:26.311Z,1.40
2019-05-17T01:23:53.431Z,1.60
2019-05-17T01:26:21.594Z,1.50
2019-05-17T01:28:48.710Z,1.50
2019-05-17T01:31:17.230Z,1.50
2019-05-17T01:33:47.063Z,1.43
2019-05-17T01:36:14.402Z,1.43
2019-05-17T01:38:41.474Z,1.70
2019-05-17T01:41:08.552Z,1.60
2019-05-17T01:43:36.815Z,1.50
2019-05-17T01:46:06.508Z,1.47
2019-05-17T01:48:33.046Z,1.47
2019-05-17T01:51:10.556Z,1.90
2019-05-17T01:53:37.627Z,1.60
2019-05-17T01:56:06.421Z,1.80
2019-05-17T01:58:33.685Z,1.53
2019-05-17T02:01:00.767Z,1.60
2019-05-17T02:03:27.868Z,1.60
2019-05-17T02:05:56.594Z,1.30
2019-05-17T02:08:23.820Z,1.40
2019-05-17T02:10:50.886Z,1.70
2019-05-17T02:13:17.962Z,1.50
2019-05-17T02:15:47.008Z,1.40
2019-05-17T02:18:14.005Z,1.47
2019-05-17T02:20:41.089Z,1.20
2019-05-17T02:23:08.173Z,1.57
2019-05-17T02:25:37.052Z,1.23
2019-05-17T02:28:04.355Z,1.60
2019-05-17T02:30:33.706Z,1.43
2019-05-17T02:33:03.824Z,1.47
2019-05-17T02:35:33.650Z,1.37
2019-05-17T02:38:02.704Z,1.30
2019-05-17T02:40:28.768Z,1.43
2019-05-17T02:42:56.171Z,1.33
2019-05-17T02:45:23.567Z,1.53
2019-05-17T02:47:53.607Z,1.70
2019-05-17T02:50:19.720Z,1.40
2019-05-17T02:52:46.795Z,1.50
2019-05-17T02:55:15.285Z,1.30
2019-05-17T02:57:43.275Z,1.47
2019-05-17T03:00:13.410Z,1.30
2019-05-17T03:02:43.377Z,1.40
2019-05-17T03:05:12.881Z,1.30
2019-05-17T03:07:39.055Z,1.80
2019-05-17T03:10:18.105Z,1.37
2019-05-17T03:12:35.259Z,1.43
2019-05-17T03:15:04.031Z,1.20
2019-05-17T03:17:33.785Z,1.17
2019-05-17T03:20:03.600Z,1.53
2019-05-17T03:22:29.285Z,1.20
2019-05-17T03:24:56.368Z,1.30
2019-05-17T03:27:23.535Z,1.10
2019-05-17T03:29:53.708Z,1.40
2019-05-17T03:32:25.860Z,1.90
2019-05-17T03:34:55.327Z,1.30
2019-05-17T03:37:18.488Z,1.00
2019-05-17T03:39:45.568Z,1.20
2019-05-17T03:42:13.280Z,1.20
2019-05-17T03:44:43.605Z,1.20
2019-05-17T03:47:12.902Z,1.10
2019-05-17T03:49:39.580Z,1.17
2019-05-17T03:52:07.084Z,1.13
2019-05-17T03:54:34.164Z,0.93
2019-05-17T03:57:02.906Z,1.10
2019-05-17T03:59:33.210Z,1.20
2019-05-17T04:01:59.256Z,0.93
2019-05-17T04:04:26.316Z,1.20
2019-05-17T04:06:53.383Z,1.33
2019-05-17T04:09:22.413Z,1.10
2019-05-17T04:11:49.481Z,1.10
2019-05-17T04:14:16.551Z,1.37
2019-05-17T04:16:43.620Z,0.83
2019-05-17T04:19:13.631Z,0.93
2019-05-17T04:21:42.698Z,0.90
2019-05-17T04:24:08.643Z,1.00
2019-05-17T04:26:35.720Z,1.23
2019-05-17T04:29:03.503Z,1.03
2019-05-17T04:31:34.867Z,0.87
2019-05-17T04:34:02.707Z,1.20
2019-05-17T04:36:28.769Z,0.80
2019-05-17T04:38:55.838Z,0.90
2019-05-17T04:41:39.728Z,0.77
2019-05-17T04:43:53.164Z,1.00
2019-05-17T04:46:23.640Z,0.73
2019-05-17T04:48:49.728Z,0.90
2019-05-17T04:51:16.808Z,0.57
2019-05-17T04:53:43.897Z,0.90
2019-05-17T04:56:14.056Z,0.70
2019-05-17T04:58:42.894Z,1.03
2019-05-17T05:01:12.961Z,0.87
2019-05-17T05:03:39.151Z,0.80
2019-05-17T05:06:06.349Z,0.90
2019-05-17T05:08:33.479Z,1.00
2019-05-17T05:11:03.677Z,1.00
2019-05-17T05:13:33.363Z,0.70
2019-05-17T05:16:02.731Z,0.80
2019-05-17T05:18:28.772Z,0.90
2019-05-17T05:20:55.847Z,1.00
2019-05-17T05:23:23.875Z,1.00
2019-05-17T05:25:52.231Z,0.97
2019-05-17T05:28:19.462Z,0.90
2019-05-17T05:30:46.840Z,0.80
2019-05-17T05:33:13.939Z,0.80
2019-05-17T05:35:42.433Z,0.80
2019-05-17T05:38:09.975Z,1.00
2019-05-17T05:40:37.083Z,0.90
2019-05-17T05:43:04.155Z,0.80
2019-05-17T05:45:32.065Z,0.97
2019-05-17T05:48:01.630Z,0.73
2019-05-17T05:50:28.295Z,0.70
2019-05-17T05:52:55.390Z,1.00
2019-05-17T05:55:23.366Z,0.90
2019-05-17T05:57:52.226Z,0.83
2019-05-17T06:00:21.984Z,0.60
2019-05-17T06:02:48.823Z,0.70
2019-05-17T06:05:17.396Z,0.63
2019-05-17T06:07:44.583Z,0.80
2019-05-17T06:10:13.079Z,1.00
2019-05-17T06:12:42.947Z,0.60
2019-05-17T06:15:09.812Z,0.50
2019-05-17T06:17:38.828Z,0.80
2019-05-17T06:20:07.619Z,0.60
2019-05-17T06:22:34.690Z,0.63
2019-05-17T06:25:04.283Z,0.60
2019-05-17T06:27:32.096Z,0.90
2019-05-17T06:30:01.358Z,0.57
2019-05-17T06:32:28.179Z,0.57
2019-05-17T06:34:55.237Z,0.70
2019-05-17T06:37:22.535Z,0.60
2019-05-17T06:39:49.693Z,0.60
2019-05-17T06:42:16.814Z,0.60
2019-05-17T06:44:43.868Z,0.97
2019-05-17T06:47:11.987Z,0.80
2019-05-17T06:49:39.230Z,0.60
2019-05-17T06:52:06.303Z,0.40
2019-05-17T06:54:33.394Z,0.60
2019-05-17T06:57:03.289Z,0.67
2019-05-17T06:59:29.435Z,0.63
2019-05-17T07:01:56.512Z,0.43
2019-05-17T07:04:23.563Z,1.00
2019-05-17T07:07:30.564Z,0.63
2019-05-17T07:10:00.519Z,0.60
2019-05-17T07:12:27.514Z,0.70
2019-05-17T07:14:54.700Z,0.70
2019-05-17T07:17:21.790Z,0.60
2019-05-17T07:19:50.804Z,0.67
2019-05-17T07:22:18.009Z,0.70
2019-05-17T07:24:45.062Z,0.70
2019-05-17T07:27:12.136Z,0.60
2019-05-17T07:29:40.355Z,0.60
2019-05-17T07:32:09.697Z,0.60
2019-05-17T07:34:36.567Z,0.80
2019-05-17T07:37:03.627Z,0.70
2019-05-17T07:39:30.698Z,0.90
2019-05-17T07:41:59.868Z,0.80
2019-05-17T07:44:26.758Z,1.23
2019-05-17T07:46:53.934Z,0.60
2019-05-17T07:49:21.010Z,0.60
2019-05-17T07:51:50.182Z,0.60
2019-05-17T07:54:19.592Z,0.60
2019-05-17T07:56:46.074Z,0.77
2019-05-17T07:59:13.155Z,0.60
2019-05-17T08:01:41.275Z,0.60
2019-05-17T08:04:09.994Z,0.63
2019-05-17T08:06:39.978Z,0.60
2019-05-17T08:09:06.259Z,0.80
2019-05-17T08:11:33.323Z,0.70
2019-05-17T08:14:00.385Z,0.80
2019-05-17T08:16:27.695Z,0.60
2019-05-17T08:18:56.666Z,0.50
2019-05-17T08:21:23.896Z,0.63
2019-05-17T08:23:50.974Z,0.70
2019-05-17T08:26:19.996Z,0.90
2019-05-17T08:28:46.995Z,0.60
2019-05-17T08:31:14.070Z,0.60
2019-05-17T08:33:41.168Z,0.70
2019-05-17T08:36:09.342Z,0.90
2019-05-17T08:38:36.540Z,0.63
2019-05-17T08:41:03.612Z,0.70
2019-05-17T08:43:39.489Z,0.50
2019-05-17T08:46:01.963Z,0.60
2019-05-17T08:48:29.511Z,0.80
2019-05-17T08:50:56.551Z,0.70
2019-05-17T08:53:23.635Z,0.70
2019-05-17T08:55:50.703Z,0.60
2019-05-17T08:58:21.282Z,0.60
2019-05-17T09:00:46.792Z,1.00
2019-05-17T09:03:13.955Z,0.80
2019-05-17T09:05:41.767Z,0.60
2019-05-17T09:08:10.446Z,0.77
2019-05-17T09:10:40.468Z,0.70
2019-05-17T09:13:06.855Z,1.10
2019-05-17T09:15:33.919Z,0.90
2019-05-17T09:18:00.993Z,0.90
2019-05-17T09:20:29.624Z,0.80
2019-05-17T09:22:56.847Z,0.70
2019-05-17T09:25:23.992Z,1.00
2019-05-17T09:27:51.077Z,2.43
2019-05-17T09:30:20.348Z,0.60
2019-05-17T09:32:47.634Z,0.63
2019-05-17T09:35:14.699Z,0.70
2019-05-17T09:37:41.837Z,0.90
2019-05-17T09:40:09.383Z,0.60
2019-05-17T09:42:36.652Z,0.80
2019-05-17T09:45:04.288Z,0.90
2019-05-17T09:47:31.363Z,0.70
2019-05-17T09:50:00.430Z,0.60
2019-05-17T09:52:29.310Z,0.93
2019-05-17T09:54:56.511Z,0.77
2019-05-17T09:57:23.585Z,0.70
2019-05-17T09:59:50.724Z,1.37
2019-05-17T10:02:20.173Z,0.70
2019-05-17T10:04:46.794Z,0.70
2019-05-17T10:07:14.172Z,0.63
2019-05-17T10:09:41.258Z,0.50
2019-05-17T10:12:09.510Z,0.90
2019-05-17T10:14:36.835Z,1.03
2019-05-17T10:17:04.259Z,0.90
2019-05-17T10:19:31.317Z,0.90
2019-05-17T10:21:59.756Z,0.70
2019-05-17T10:24:36.039Z,0.80
2019-05-17T10:26:55.963Z,0.80
2019-05-17T10:29:23.064Z,0.90
2019-05-17T10:31:50.512Z,0.80
2019-05-17T10:34:20.219Z,0.70
2019-05-17T10:36:46.670Z,0.70
2019-05-17T10:39:13.797Z,0.60
2019-05-17T10:41:40.934Z,0.60
2019-05-17T10:44:09.443Z,0.73
2019-05-17T10:46:36.709Z,0.70
2019-05-17T10:49:03.900Z,1.00
2019-05-17T10:51:30.973Z,0.60
2019-05-17T10:53:59.983Z,0.90
2019-05-17T10:56:27.042Z,0.73
2019-05-17T10:58:54.247Z,1.00
2019-05-17T11:01:21.363Z,0.80
2019-05-17T11:03:50.290Z,0.50
2019-05-17T11:06:19.619Z,0.70
2019-05-17T11:08:46.587Z,0.63
2019-05-17T11:11:13.663Z,0.77
2019-05-17T11:13:40.861Z,0.57
2019-05-17T11:16:07.965Z,0.87
2019-05-17T11:18:35.047Z,0.60
2019-05-17T11:21:02.130Z,0.73
2019-05-17T11:23:29.216Z,1.27
2019-05-17T11:25:56.297Z,0.50
2019-05-17T11:28:23.381Z,0.60
2019-05-17T11:30:50.483Z,0.63
2019-05-17T11:33:17.594Z,0.80
2019-05-17T11:35:44.670Z,0.50
2019-05-17T11:38:11.752Z,0.80
2019-05-17T11:40:38.843Z,0.53
2019-05-17T11:43:05.942Z,0.73
2019-05-17T11:45:33.141Z,0.70
2019-05-17T11:48:00.303Z,0.73
2019-05-17T11:50:27.369Z,0.50
2019-05-17T11:52:54.444Z,0.87
2019-05-17T11:55:21.541Z,0.60
2019-05-17T11:57:48.643Z,0.60
2019-05-17T12:00:16.724Z,0.73
2019-05-17T12:02:43.810Z,0.50
2019-05-17T12:05:10.904Z,0.80
2019-05-17T12:07:37.980Z,0.63
2019-05-17T12:10:05.512Z,0.70
2019-05-17T12:12:32.601Z,0.53
2019-05-17T12:14:59.684Z,0.70
2019-05-17T12:17:26.791Z,0.70
2019-05-17T12:19:53.888Z,0.80
2019-05-17T12:22:20.965Z,0.50
2019-05-17T12:24:48.093Z,0.70
2019-05-17T12:27:15.132Z,0.90
2019-05-17T12:29:42.252Z,0.80
2019-05-17T12:32:14.343Z,0.80
2019-05-17T12:34:38.329Z,0.60
2019-05-17T12:37:05.441Z,0.70
2019-05-17T12:39:32.541Z,0.70
2019-05-17T12:41:59.661Z,0.70
2019-05-17T12:44:26.748Z,0.73
2019-05-17T12:46:53.831Z,0.80
2019-05-17T12:49:20.919Z,0.60
2019-05-17T12:51:48.000Z,0.70
2019-05-17T12:54:15.101Z,0.93
2019-05-17T12:56:42.179Z,0.70
2019-05-17T12:59:09.284Z,0.73
2019-05-17T13:01:36.344Z,0.73
2019-05-17T13:04:03.415Z,0.57
2019-05-17T13:06:30.524Z,0.60
2019-05-17T13:08:57.642Z,0.97
2019-05-17T13:11:24.718Z,0.80
2019-05-17T13:13:51.840Z,0.70
2019-05-17T13:16:19.436Z,0.60
2019-05-17T13:18:49.399Z,0.70
2019-05-17T13:21:16.478Z,0.73
2019-05-17T13:23:43.608Z,0.70
2019-05-17T13:26:10.719Z,0.70
2019-05-17T13:28:37.923Z,1.13
2019-05-17T13:31:05.063Z,0.80
2019-05-17T13:33:32.133Z,0.70
2019-05-17T13:35:59.232Z,0.60
2019-05-17T13:38:26.378Z,0.80
2019-05-17T13:40:53.441Z,0.60
2019-05-17T13:43:20.646Z,0.83
2019-05-17T13:45:47.797Z,0.77
2019-05-17T13:48:14.901Z,0.67
2019-05-17T13:50:42.011Z,0.87
2019-05-17T13:53:09.159Z,0.80
2019-05-17T13:55:36.435Z,0.67
2019-05-17T13:58:03.524Z,0.90
2019-05-17T14:00:30.617Z,0.70
2019-05-17T14:02:57.690Z,0.70
2019-05-17T14:05:24.768Z,0.60
2019-05-17T14:07:54.984Z,0.60
2019-05-17T14:10:27.690Z,0.90
2019-05-17T14:12:51.064Z,0.60
2019-05-17T14:15:18.375Z,0.53
2019-05-17T14:17:45.398Z,0.70
2019-05-17T14:20:12.474Z,0.70
2019-05-17T14:22:39.848Z,0.70
2019-05-17T14:25:08.141Z,0.70
2019-05-17T14:27:35.208Z,0.70
2019-05-17T14:30:02.476Z,0.67
2019-05-17T14:32:29.596Z,0.83
2019-05-17T14:34:56.667Z,0.80
2019-05-17T14:37:23.744Z,0.70
2019-05-17T14:39:50.878Z,0.70
2019-05-17T14:42:17.971Z,0.60
2019-05-17T14:44:45.070Z,0.70
2019-05-17T14:47:12.193Z,0.90
2019-05-17T14:49:39.279Z,0.40
2019-05-17T14:52:06.444Z,0.83
2019-05-17T14:54:33.542Z,0.70
2019-05-17T14:57:00.640Z,0.50
2019-05-17T14:59:27.709Z,0.40
2019-05-17T15:01:54.831Z,0.40
2019-05-17T15:04:21.946Z,0.57
2019-05-17T15:06:49.046Z,0.60
2019-05-17T15:09:16.139Z,0.47
2019-05-17T15:11:43.222Z,0.50
2019-05-17T15:14:10.283Z,0.40
2019-05-17T15:16:37.376Z,0.70
2019-05-17T15:19:04.513Z,0.43
2019-05-17T15:21:31.587Z,0.43
2019-05-17T15:23:58.882Z,0.70
2019-05-17T15:26:25.984Z,0.50
2019-05-17T15:28:53.772Z,0.60
2019-05-17T15:31:20.846Z,0.40
2019-05-17T15:33:47.992Z,0.60
2019-05-17T15:36:15.070Z,0.50
2019-05-17T15:38:42.139Z,0.53
2019-05-17T15:41:09.220Z,0.67
2019-05-17T15:43:36.325Z,0.73
2019-05-17T15:46:03.967Z,1.17
2019-05-17T15:48:31.099Z,0.50
2019-05-17T15:50:58.541Z,0.70
2019-05-17T15:53:25.619Z,0.80
2019-05-17T15:55:52.718Z,0.70
2019-05-17T15:58:19.792Z,0.73
2019-05-17T16:00:46.896Z,0.70
2019-05-17T16:03:13.978Z,0.60
2019-05-17T16:05:41.115Z,0.50
2019-05-17T16:08:08.250Z,0.50
2019-05-17T16:10:35.359Z,1.23
2019-05-17T16:13:03.626Z,0.60
2019-05-17T16:15:30.924Z,0.50
2019-05-17T16:17:58.040Z,0.70
2019-05-17T16:20:25.205Z,0.50
2019-05-17T16:22:52.296Z,0.50
2019-05-17T16:25:19.391Z,0.50
2019-05-17T16:27:46.474Z,0.50
2019-05-17T16:30:13.906Z,0.80
2019-05-17T16:32:41.033Z,0.60
2019-05-17T16:35:08.121Z,0.50
2019-05-17T16:37:35.268Z,0.70
2019-05-17T16:40:02.503Z,0.60
2019-05-17T16:42:29.693Z,0.70
2019-05-17T16:44:56.791Z,0.57
2019-05-17T16:47:23.867Z,0.50
2019-05-17T16:49:50.966Z,0.60
2019-05-17T16:52:18.125Z,0.50
2019-05-17T16:54:45.196Z,0.60
2019-05-17T16:57:12.378Z,0.67
2019-05-17T16:59:39.469Z,0.57
2019-05-17T17:02:06.603Z,0.80
2019-05-17T17:04:33.689Z,0.60
2019-05-17T17:07:00.780Z,0.40
2019-05-17T17:09:27.933Z,0.57
2019-05-17T17:11:55.015Z,0.60
2019-05-17T17:14:22.099Z,0.50
2019-05-17T17:16:49.198Z,0.63
2019-05-17T17:19:16.354Z,0.57
2019-05-17T17:21:43.435Z,0.77
2019-05-17T17:24:10.565Z,0.70
2019-05-17T17:26:37.646Z,0.80
2019-05-17T17:29:09.263Z,0.97
2019-05-17T17:31:36.345Z,1.50
2019-05-17T17:34:03.430Z,1.00
2019-05-17T17:36:30.717Z,0.80
2019-05-17T17:38:57.842Z,0.57
2019-05-17T17:41:26.622Z,0.70
2019-05-17T17:43:58.474Z,0.60
2019-05-17T17:46:23.019Z,0.70
2019-05-17T17:48:50.081Z,0.70
2019-05-17T17:51:17.244Z,0.70
2019-05-17T17:53:45.552Z,0.60
2019-05-17T17:56:14.460Z,0.70
2019-05-17T17:58:41.532Z,0.70
2019-05-17T18:01:08.590Z,0.60
2019-05-17T18:03:35.659Z,0.77
2019-05-17T18:06:02.768Z,0.60
2019-05-17T18:08:29.831Z,0.73
2019-05-17T18:10:56.917Z,0.90
2019-05-17T18:13:23.999Z,0.90
2019-05-17T18:15:51.101Z,0.60
2019-05-17T18:18:18.209Z,0.70
2019-05-17T18:20:45.465Z,0.60
2019-05-17T18:23:12.543Z,0.67
2019-05-17T18:25:39.914Z,0.77
2019-05-17T18:28:07.947Z,0.80
2019-05-17T18:30:35.553Z,0.70
2019-05-17T18:33:04.531Z,0.70
2019-05-17T18:35:31.617Z,0.60
2019-05-17T18:37:58.710Z,0.70
2019-05-17T18:40:25.813Z,0.93
2019-05-17T18:42:52.906Z,0.80
2019-05-17T18:45:20.003Z,0.70
2019-05-17T18:47:50.240Z,0.80
2019-05-17T18:50:18.200Z,0.90
2019-05-17T18:52:45.290Z,0.77
2019-05-17T18:55:13.025Z,1.00
2019-05-17T18:57:40.094Z,0.80
2019-05-17T19:00:07.886Z,0.70
2019-05-17T19:02:34.988Z,0.70
2019-05-17T19:05:02.089Z,0.90
2019-05-17T19:07:29.135Z,1.10
2019-05-17T19:09:56.231Z,0.90
2019-05-17T19:12:23.302Z,0.80
2019-05-17T19:14:50.414Z,0.60
2019-05-17T19:17:17.523Z,0.70
2019-05-17T19:19:44.582Z,0.97
2019-05-17T19:22:11.714Z,0.77
2019-05-17T19:24:38.827Z,0.70
2019-05-17T19:27:06.004Z,0.90
2019-05-17T19:29:33.056Z,0.80
2019-05-17T19:32:00.127Z,0.80
2019-05-17T19:34:29.031Z,0.80
2019-05-17T19:36:56.304Z,0.87
2019-05-17T19:39:23.424Z,0.70
2019-05-17T19:41:50.564Z,0.80
2019-05-17T19:44:17.752Z,0.70
2019-05-17T19:46:44.836Z,0.80
2019-05-17T19:49:12.941Z,0.87
2019-05-17T19:51:40.002Z,0.70
2019-05-17T19:54:07.085Z,0.70
2019-05-17T19:56:34.149Z,0.90
2019-05-17T19:59:01.635Z,0.90
2019-05-17T20:01:28.733Z,0.83
2019-05-17T20:03:55.810Z,0.63
2019-05-17T20:06:22.931Z,0.83
2019-05-17T20:08:50.008Z,0.73
2019-05-17T20:11:17.099Z,0.60
2019-05-17T20:13:46.097Z,0.90
2019-05-17T20:16:14.651Z,0.80
2019-05-17T20:18:41.733Z,1.70
2019-05-17T20:21:08.838Z,1.07
2019-05-17T20:23:35.917Z,1.03
2019-05-17T20:26:03.011Z,1.00
2019-05-17T20:28:30.171Z,1.00
2019-05-17T20:30:57.254Z,0.87
2019-05-17T20:33:26.709Z,0.83
2019-05-17T20:35:53.783Z,0.80
2019-05-17T20:38:20.851Z,1.07
2019-05-17T20:40:47.960Z,0.83
2019-05-17T20:43:15.063Z,0.90
2019-05-17T20:45:42.146Z,0.90
2019-05-17T20:48:09.243Z,1.03
2019-05-17T20:50:36.300Z,1.10
2019-05-17T20:53:17.831Z,0.90
2019-05-17T20:55:32.718Z,0.90
2019-05-17T20:57:59.897Z,0.97
2019-05-17T21:00:27.037Z,1.00
2019-05-17T21:02:54.179Z,0.80
2019-05-17T21:05:21.275Z,0.90
2019-05-17T21:07:48.360Z,1.00
2019-05-17T21:10:15.647Z,0.97
2019-05-17T21:12:43.046Z,1.10
2019-05-17T21:15:10.159Z,1.00
2019-05-17T21:17:37.473Z,0.90
2019-05-17T21:20:05.002Z,0.70
2019-05-17T21:22:32.223Z,0.77
2019-05-17T21:25:01.387Z,0.90
2019-05-17T21:27:28.525Z,1.20
2019-05-17T21:29:57.537Z,1.10
2019-05-17T21:32:24.915Z,0.80
2019-05-17T21:34:52.034Z,1.00
2019-05-17T21:37:20.173Z,1.20
2019-05-17T21:39:47.387Z,1.03
2019-05-17T21:42:14.440Z,0.90
2019-05-17T21:44:41.554Z,0.97
2019-05-17T21:47:08.652Z,0.93
2019-05-17T21:49:37.926Z,1.00
2019-05-17T21:52:05.386Z,0.80
2019-05-17T21:54:32.461Z,0.90
2019-05-17T21:56:59.526Z,0.90
2019-05-17T21:59:26.639Z,1.20
2019-05-17T22:01:54.379Z,1.00
2019-05-17T22:04:21.459Z,0.90
2019-05-17T22:06:48.540Z,0.90
2019-05-17T22:09:15.636Z,1.07
2019-05-17T22:11:44.958Z,1.10
2019-05-17T22:14:16.509Z,1.23
2019-05-17T22:16:43.589Z,0.97
2019-05-17T22:19:10.651Z,0.90
2019-05-17T22:21:37.721Z,0.80
2019-05-17T22:24:04.835Z,0.70
2019-05-17T22:26:31.904Z,0.90
2019-05-17T22:28:58.976Z,1.00
2019-05-17T22:31:26.036Z,0.80
2019-05-17T22:33:53.116Z,0.90
2019-05-17T22:36:20.183Z,1.00
2019-05-17T22:38:47.268Z,0.97
2019-05-17T22:41:14.326Z,0.80
2019-05-17T22:43:41.391Z,0.90
2019-05-17T22:46:08.477Z,0.80
2019-05-17T22:48:35.543Z,1.10
2019-05-17T22:51:02.758Z,0.90
2019-05-17T22:53:29.838Z,1.00
2019-05-17T22:55:56.886Z,0.90
2019-05-17T22:58:25.055Z,0.90
2019-05-17T23:00:53.224Z,0.80
2019-05-17T23:03:20.289Z,1.00
2019-05-17T23:05:47.373Z,0.90
2019-05-17T23:08:14.439Z,1.03
2019-05-17T23:10:41.534Z,1.00
2019-05-17T23:13:08.986Z,0.83
2019-05-17T23:15:54.604Z,0.83
2019-05-17T23:18:21.664Z,0.87
2019-05-17T23:20:49.847Z,1.00
2019-05-17T23:23:18.044Z,0.73
2019-05-17T23:25:45.118Z,1.00
2019-05-17T23:28:12.199Z,0.80
2019-05-17T23:30:39.258Z,0.70
2019-05-17T23:33:07.642Z,0.90
2019-05-17T23:35:34.724Z,0.90
2019-05-17T23:38:01.788Z,0.87
2019-05-17T23:40:28.846Z,1.07
2019-05-17T23:42:58.146Z,0.90
2019-05-17T23:45:25.199Z,0.83
2019-05-17T23:47:52.262Z,1.10
2019-05-17T23:50:19.337Z,0.97
2019-05-17T23:52:46.407Z,1.10
2019-05-17T23:55:13.479Z,0.80
2019-05-17T23:57:42.352Z,0.80
